sensor_id;sensor_type;location;lat;lon;timestamp;temperature;humidity
4306;DHT22;2166;49.926;8.608;2023-01-19T00:00:19;-1.80;82.60
4306;DHT22;2166;49.926;8.608;2023-01-19T00:02:52;-1.70;82.60
4306;DHT22;2166;49.926;8.608;2023-01-19T00:05:22;-1.70;82.50
4306;DHT22;2166;49.926;8.608;2023-01-19T00:07:55;-1.70;82.50
4306;DHT22;2166;49.926;8.608;2023-01-19T00:10:40;-1.70;82.50
4306;DHT22;2166;49.926;8.608;2023-01-19T00:13:10;-1.60;82.60
4306;DHT22;2166;49.926;8.608;2023-01-19T00:15:40;-1.60;82.50
4306;DHT22;2166;49.926;8.608;2023-01-19T00:18:09;-1.60;82.50
4306;DHT22;2166;49.926;8.608;2023-01-19T00:20:38;-1.50;82.50
4306;DHT22;2166;49.926;8.608;2023-01-19T00:23:06;-1.50;82.40
4306;DHT22;2166;49.926;8.608;2023-01-19T00:25:36;-1.50;82.30
4306;DHT22;2166;49.926;8.608;2023-01-19T00:28:10;-1.50;82.30
4306;DHT22;2166;49.926;8.608;2023-01-19T00:30:43;-1.50;82.40
4306;DHT22;2166;49.926;8.608;2023-01-19T00:33:14;-1.50;82.40
4306;DHT22;2166;49.926;8.608;2023-01-19T00:35:55;-1.50;82.50
4306;DHT22;2166;49.926;8.608;2023-01-19T00:38:28;-1.50;82.50
4306;DHT22;2166;49.926;8.608;2023-01-19T00:40:58;-1.50;82.50
4306;DHT22;2166;49.926;8.608;2023-01-19T00:43:26;-1.50;82.60
4306;DHT22;2166;49.926;8.608;2023-01-19T00:46:00;-1.50;82.60
4306;DHT22;2166;49.926;8.608;2023-01-19T00:48:32;-1.50;82.50
4306;DHT22;2166;49.926;8.608;2023-01-19T00:51:00;-1.60;82.50
4306;DHT22;2166;49.926;8.608;2023-01-19T00:53:31;-1.60;82.70
4306;DHT22;2166;49.926;8.608;2023-01-19T00:55:59;-1.60;82.70
4306;DHT22;2166;49.926;8.608;2023-01-19T00:58:39;-1.60;82.90
4306;DHT22;2166;49.926;8.608;2023-01-19T01:01:17;-1.70;82.90
4306;DHT22;2166;49.926;8.608;2023-01-19T01:04:13;-1.70;82.90
4306;DHT22;2166;49.926;8.608;2023-01-19T01:06:56;-1.70;83.10
4306;DHT22;2166;49.926;8.608;2023-01-19T01:09:29;-1.70;83.20
4306;DHT22;2166;49.926;8.608;2023-01-19T01:12:00;-1.70;83.20
4306;DHT22;2166;49.926;8.608;2023-01-19T01:14:36;-1.60;83.30
4306;DHT22;2166;49.926;8.608;2023-01-19T01:17:22;-1.60;83.30
4306;DHT22;2166;49.926;8.608;2023-01-19T01:19:58;-1.60;83.30
4306;DHT22;2166;49.926;8.608;2023-01-19T01:22:26;-1.50;83.30
4306;DHT22;2166;49.926;8.608;2023-01-19T01:24:58;-1.50;83.30
4306;DHT22;2166;49.926;8.608;2023-01-19T01:27:27;-1.50;83.30
4306;DHT22;2166;49.926;8.608;2023-01-19T01:29:58;-1.40;83.40
4306;DHT22;2166;49.926;8.608;2023-01-19T01:32:31;-1.40;83.30
4306;DHT22;2166;49.926;8.608;2023-01-19T01:35:00;-1.40;83.20
4306;DHT22;2166;49.926;8.608;2023-01-19T01:38:09;-1.40;83.20
4306;DHT22;2166;49.926;8.608;2023-01-19T01:40:57;-1.40;83.20
4306;DHT22;2166;49.926;8.608;2023-01-19T01:43:41;-1.50;83.10
4306;DHT22;2166;49.926;8.608;2023-01-19T01:46:10;-1.60;83.20
4306;DHT22;2166;49.926;8.608;2023-01-19T01:48:47;-1.60;83.30
4306;DHT22;2166;49.926;8.608;2023-01-19T01:51:21;-1.60;83.40
4306;DHT22;2166;49.926;8.608;2023-01-19T01:53:56;-1.60;83.40
4306;DHT22;2166;49.926;8.608;2023-01-19T01:56:30;-1.60;83.40
4306;DHT22;2166;49.926;8.608;2023-01-19T01:58:59;-1.60;83.50
4306;DHT22;2166;49.926;8.608;2023-01-19T02:02:02;-1.60;83.50
4306;DHT22;2166;49.926;8.608;2023-01-19T02:04:54;-1.60;83.60
4306;DHT22;2166;49.926;8.608;2023-01-19T02:07:26;-1.60;83.60
4306;DHT22;2166;49.926;8.608;2023-01-19T02:10:14;-1.60;83.60
4306;DHT22;2166;49.926;8.608;2023-01-19T02:13:00;-1.60;83.60
4306;DHT22;2166;49.926;8.608;2023-01-19T02:15:46;-1.70;83.60
4306;DHT22;2166;49.926;8.608;2023-01-19T02:18:15;-1.70;83.80
4306;DHT22;2166;49.926;8.608;2023-01-19T02:20:47;-1.70;83.80
4306;DHT22;2166;49.926;8.608;2023-01-19T02:25:57;-1.70;83.90
4306;DHT22;2166;49.926;8.608;2023-01-19T02:28:26;-1.60;84.00
4306;DHT22;2166;49.926;8.608;2023-01-19T02:30:55;-1.70;83.80
4306;DHT22;2166;49.926;8.608;2023-01-19T02:33:23;-1.70;83.60
4306;DHT22;2166;49.926;8.608;2023-01-19T02:35:52;-1.70;83.60
4306;DHT22;2166;49.926;8.608;2023-01-19T02:38:24;-1.60;83.90
4306;DHT22;2166;49.926;8.608;2023-01-19T02:41:11;-1.60;83.90
4306;DHT22;2166;49.926;8.608;2023-01-19T02:44:00;-1.60;83.90
4306;DHT22;2166;49.926;8.608;2023-01-19T02:46:29;-1.60;83.70
4306;DHT22;2166;49.926;8.608;2023-01-19T02:48:58;-1.60;83.80
4306;DHT22;2166;49.926;8.608;2023-01-19T02:51:29;-1.60;83.80
4306;DHT22;2166;49.926;8.608;2023-01-19T02:56:52;-1.50;84.00
4306;DHT22;2166;49.926;8.608;2023-01-19T02:59:27;-1.50;84.00
4306;DHT22;2166;49.926;8.608;2023-01-19T03:02:10;-1.50;84.00
4306;DHT22;2166;49.926;8.608;2023-01-19T03:04:46;-1.60;83.90
4306;DHT22;2166;49.926;8.608;2023-01-19T03:07:20;-1.50;84.10
4306;DHT22;2166;49.926;8.608;2023-01-19T03:09:52;-1.50;84.20
4306;DHT22;2166;49.926;8.608;2023-01-19T03:12:29;-1.40;84.20
4306;DHT22;2166;49.926;8.608;2023-01-19T03:15:02;-1.30;84.20
4306;DHT22;2166;49.926;8.608;2023-01-19T03:17:35;-1.30;84.20
4306;DHT22;2166;49.926;8.608;2023-01-19T03:20:06;-1.30;84.20
4306;DHT22;2166;49.926;8.608;2023-01-19T03:22:38;-1.20;84.20
4306;DHT22;2166;49.926;8.608;2023-01-19T03:25:07;-1.00;84.20
4306;DHT22;2166;49.926;8.608;2023-01-19T03:27:42;-1.00;84.10
4306;DHT22;2166;49.926;8.608;2023-01-19T03:30:14;-1.10;84.00
4306;DHT22;2166;49.926;8.608;2023-01-19T03:32:46;-1.00;84.00
4306;DHT22;2166;49.926;8.608;2023-01-19T03:35:19;-1.00;84.00
4306;DHT22;2166;49.926;8.608;2023-01-19T03:37:51;-1.00;84.10
4306;DHT22;2166;49.926;8.608;2023-01-19T03:40:22;-1.10;84.00
4306;DHT22;2166;49.926;8.608;2023-01-19T03:46:11;-1.00;84.20
4306;DHT22;2166;49.926;8.608;2023-01-19T03:48:44;-1.00;84.20
4306;DHT22;2166;49.926;8.608;2023-01-19T03:51:25;-1.00;84.20
4306;DHT22;2166;49.926;8.608;2023-01-19T03:53:53;-1.10;84.20
4306;DHT22;2166;49.926;8.608;2023-01-19T03:56:24;-1.10;84.20
4306;DHT22;2166;49.926;8.608;2023-01-19T03:58:53;-1.10;84.20
4306;DHT22;2166;49.926;8.608;2023-01-19T04:01:37;-1.10;84.30
4306;DHT22;2166;49.926;8.608;2023-01-19T04:04:05;-1.10;84.30
4306;DHT22;2166;49.926;8.608;2023-01-19T04:06:33;-1.20;84.30
4306;DHT22;2166;49.926;8.608;2023-01-19T04:09:03;-1.20;84.40
4306;DHT22;2166;49.926;8.608;2023-01-19T04:11:46;-1.20;84.30
4306;DHT22;2166;49.926;8.608;2023-01-19T04:14:18;-1.30;84.40
4306;DHT22;2166;49.926;8.608;2023-01-19T04:16:48;-1.30;84.40
4306;DHT22;2166;49.926;8.608;2023-01-19T04:19:16;-1.30;84.40
4306;DHT22;2166;49.926;8.608;2023-01-19T04:21:46;-1.30;84.40
4306;DHT22;2166;49.926;8.608;2023-01-19T04:24:15;-1.30;84.50
4306;DHT22;2166;49.926;8.608;2023-01-19T04:26:43;-1.30;84.60
4306;DHT22;2166;49.926;8.608;2023-01-19T04:29:11;-1.40;84.50
4306;DHT22;2166;49.926;8.608;2023-01-19T04:31:40;-1.40;84.50
4306;DHT22;2166;49.926;8.608;2023-01-19T04:34:09;-1.30;84.60
4306;DHT22;2166;49.926;8.608;2023-01-19T04:36:41;-1.30;84.60
4306;DHT22;2166;49.926;8.608;2023-01-19T04:39:11;-1.30;84.70
4306;DHT22;2166;49.926;8.608;2023-01-19T04:41:39;-1.20;84.70
4306;DHT22;2166;49.926;8.608;2023-01-19T04:44:07;-1.10;84.70
4306;DHT22;2166;49.926;8.608;2023-01-19T04:46:36;-1.10;84.70
4306;DHT22;2166;49.926;8.608;2023-01-19T04:49:04;-1.00;84.70
4306;DHT22;2166;49.926;8.608;2023-01-19T04:51:34;-1.00;84.60
4306;DHT22;2166;49.926;8.608;2023-01-19T04:54:03;-0.90;84.50
4306;DHT22;2166;49.926;8.608;2023-01-19T04:56:31;-1.00;84.50
4306;DHT22;2166;49.926;8.608;2023-01-19T04:59:00;-1.00;84.50
4306;DHT22;2166;49.926;8.608;2023-01-19T05:01:28;-0.90;84.40
4306;DHT22;2166;49.926;8.608;2023-01-19T05:03:57;-0.90;84.40
4306;DHT22;2166;49.926;8.608;2023-01-19T05:06:25;-0.90;84.50
4306;DHT22;2166;49.926;8.608;2023-01-19T05:08:55;-0.80;84.50
4306;DHT22;2166;49.926;8.608;2023-01-19T05:11:23;-0.80;84.50
4306;DHT22;2166;49.926;8.608;2023-01-19T05:13:51;-0.80;84.50
4306;DHT22;2166;49.926;8.608;2023-01-19T05:16:19;-0.70;84.40
4306;DHT22;2166;49.926;8.608;2023-01-19T05:18:47;-0.60;84.40
4306;DHT22;2166;49.926;8.608;2023-01-19T05:21:16;-0.50;84.50
4306;DHT22;2166;49.926;8.608;2023-01-19T05:23:44;-0.40;84.40
4306;DHT22;2166;49.926;8.608;2023-01-19T05:26:13;-0.40;84.30
4306;DHT22;2166;49.926;8.608;2023-01-19T05:28:42;-0.30;84.00
4306;DHT22;2166;49.926;8.608;2023-01-19T05:31:12;-0.30;84.00
4306;DHT22;2166;49.926;8.608;2023-01-19T05:33:40;-0.30;84.00
4306;DHT22;2166;49.926;8.608;2023-01-19T05:36:08;-0.30;83.90
4306;DHT22;2166;49.926;8.608;2023-01-19T05:38:37;-0.20;83.90
4306;DHT22;2166;49.926;8.608;2023-01-19T05:41:05;-0.20;83.90
4306;DHT22;2166;49.926;8.608;2023-01-19T05:43:35;-0.10;83.90
4306;DHT22;2166;49.926;8.608;2023-01-19T05:46:03;0.00;83.80
4306;DHT22;2166;49.926;8.608;2023-01-19T05:48:32;0.00;83.60
4306;DHT22;2166;49.926;8.608;2023-01-19T05:51:01;0.10;83.60
4306;DHT22;2166;49.926;8.608;2023-01-19T05:53:30;0.10;83.60
4306;DHT22;2166;49.926;8.608;2023-01-19T05:55:59;0.10;83.50
4306;DHT22;2166;49.926;8.608;2023-01-19T05:58:27;0.20;83.50
4306;DHT22;2166;49.926;8.608;2023-01-19T06:01:00;0.20;83.50
4306;DHT22;2166;49.926;8.608;2023-01-19T06:03:28;0.30;83.40
4306;DHT22;2166;49.926;8.608;2023-01-19T06:05:56;0.40;83.30
4306;DHT22;2166;49.926;8.608;2023-01-19T06:08:24;0.40;83.20
4306;DHT22;2166;49.926;8.608;2023-01-19T06:10:52;0.40;83.20
4306;DHT22;2166;49.926;8.608;2023-01-19T06:13:21;0.40;83.20
4306;DHT22;2166;49.926;8.608;2023-01-19T06:15:54;0.50;83.20
4306;DHT22;2166;49.926;8.608;2023-01-19T06:18:24;0.50;82.90
4306;DHT22;2166;49.926;8.608;2023-01-19T06:20:52;0.50;82.90
4306;DHT22;2166;49.926;8.608;2023-01-19T06:23:24;0.50;82.90
4306;DHT22;2166;49.926;8.608;2023-01-19T06:25:52;0.40;82.90
4306;DHT22;2166;49.926;8.608;2023-01-19T06:28:21;0.50;82.90
4306;DHT22;2166;49.926;8.608;2023-01-19T06:30:51;0.40;82.90
4306;DHT22;2166;49.926;8.608;2023-01-19T06:33:20;0.40;83.20
4306;DHT22;2166;49.926;8.608;2023-01-19T06:35:50;0.40;83.00
4306;DHT22;2166;49.926;8.608;2023-01-19T06:38:19;0.40;83.00
4306;DHT22;2166;49.926;8.608;2023-01-19T06:40:50;0.50;83.00
4306;DHT22;2166;49.926;8.608;2023-01-19T06:43:19;0.50;82.90
4306;DHT22;2166;49.926;8.608;2023-01-19T06:45:48;0.50;82.90
4306;DHT22;2166;49.926;8.608;2023-01-19T06:48:17;0.50;82.90
4306;DHT22;2166;49.926;8.608;2023-01-19T06:50:46;0.50;83.00
4306;DHT22;2166;49.926;8.608;2023-01-19T06:53:28;0.50;82.90
4306;DHT22;2166;49.926;8.608;2023-01-19T06:55:59;0.50;82.90
4306;DHT22;2166;49.926;8.608;2023-01-19T06:58:30;0.50;82.90
4306;DHT22;2166;49.926;8.608;2023-01-19T07:01:00;0.50;82.90
4306;DHT22;2166;49.926;8.608;2023-01-19T07:03:30;0.60;82.90
4306;DHT22;2166;49.926;8.608;2023-01-19T07:05:58;0.50;82.80
4306;DHT22;2166;49.926;8.608;2023-01-19T07:08:29;0.50;82.80
4306;DHT22;2166;49.926;8.608;2023-01-19T07:10:58;0.50;82.80
4306;DHT22;2166;49.926;8.608;2023-01-19T07:13:46;0.50;82.90
4306;DHT22;2166;49.926;8.608;2023-01-19T07:16:17;0.40;82.90
4306;DHT22;2166;49.926;8.608;2023-01-19T07:18:49;0.40;82.90
4306;DHT22;2166;49.926;8.608;2023-01-19T07:21:25;0.40;82.90
4306;DHT22;2166;49.926;8.608;2023-01-19T07:23:56;0.50;83.00
4306;DHT22;2166;49.926;8.608;2023-01-19T07:26:25;0.50;83.20
4306;DHT22;2166;49.926;8.608;2023-01-19T07:28:53;0.40;83.00
4306;DHT22;2166;49.926;8.608;2023-01-19T07:31:22;0.30;83.10
4306;DHT22;2166;49.926;8.608;2023-01-19T07:33:51;0.20;83.30
4306;DHT22;2166;49.926;8.608;2023-01-19T07:36:19;0.10;83.40
4306;DHT22;2166;49.926;8.608;2023-01-19T07:38:47;0.00;83.60
4306;DHT22;2166;49.926;8.608;2023-01-19T07:41:17;0.10;83.80
4306;DHT22;2166;49.926;8.608;2023-01-19T07:43:47;0.00;83.80
4306;DHT22;2166;49.926;8.608;2023-01-19T07:46:17;-0.10;83.80
4306;DHT22;2166;49.926;8.608;2023-01-19T07:48:45;-0.20;83.90
4306;DHT22;2166;49.926;8.608;2023-01-19T07:51:13;-0.30;84.00
4306;DHT22;2166;49.926;8.608;2023-01-19T07:53:44;-0.40;84.20
4306;DHT22;2166;49.926;8.608;2023-01-19T07:56:12;-0.40;84.30
4306;DHT22;2166;49.926;8.608;2023-01-19T07:58:44;-0.30;84.30
4306;DHT22;2166;49.926;8.608;2023-01-19T08:01:12;-0.30;84.30
4306;DHT22;2166;49.926;8.608;2023-01-19T08:03:40;-0.30;84.30
4306;DHT22;2166;49.926;8.608;2023-01-19T08:06:09;-0.30;84.30
4306;DHT22;2166;49.926;8.608;2023-01-19T08:08:42;-0.20;84.30
4306;DHT22;2166;49.926;8.608;2023-01-19T08:11:11;0.00;84.40
4306;DHT22;2166;49.926;8.608;2023-01-19T08:13:43;0.10;84.20
4306;DHT22;2166;49.926;8.608;2023-01-19T08:16:11;0.20;84.00
4306;DHT22;2166;49.926;8.608;2023-01-19T08:18:39;0.30;83.90
4306;DHT22;2166;49.926;8.608;2023-01-19T08:21:08;0.40;83.80
4306;DHT22;2166;49.926;8.608;2023-01-19T08:23:36;0.50;83.50
4306;DHT22;2166;49.926;8.608;2023-01-19T08:26:16;0.80;83.80
4306;DHT22;2166;49.926;8.608;2023-01-19T08:28:46;1.00;83.10
4306;DHT22;2166;49.926;8.608;2023-01-19T08:31:15;1.30;82.60
4306;DHT22;2166;49.926;8.608;2023-01-19T08:33:48;1.50;82.40
4306;DHT22;2166;49.926;8.608;2023-01-19T08:36:16;1.50;82.10
4306;DHT22;2166;49.926;8.608;2023-01-19T08:38:47;1.60;82.10
4306;DHT22;2166;49.926;8.608;2023-01-19T08:41:18;1.70;82.00
4306;DHT22;2166;49.926;8.608;2023-01-19T08:43:47;1.80;81.90
4306;DHT22;2166;49.926;8.608;2023-01-19T08:46:18;2.10;81.60
4306;DHT22;2166;49.926;8.608;2023-01-19T08:48:47;2.30;80.80
4306;DHT22;2166;49.926;8.608;2023-01-19T08:51:16;2.50;80.70
4306;DHT22;2166;49.926;8.608;2023-01-19T08:53:44;2.50;79.50
4306;DHT22;2166;49.926;8.608;2023-01-19T08:56:13;2.70;79.60
4306;DHT22;2166;49.926;8.608;2023-01-19T08:58:42;2.80;78.80
4306;DHT22;2166;49.926;8.608;2023-01-19T09:01:30;3.00;78.60
4306;DHT22;2166;49.926;8.608;2023-01-19T09:03:59;3.00;78.00
4306;DHT22;2166;49.926;8.608;2023-01-19T09:06:27;3.00;78.00
4306;DHT22;2166;49.926;8.608;2023-01-19T09:08:55;3.10;77.80
4306;DHT22;2166;49.926;8.608;2023-01-19T09:11:27;3.30;77.90
4306;DHT22;2166;49.926;8.608;2023-01-19T09:13:56;3.40;77.30
4306;DHT22;2166;49.926;8.608;2023-01-19T09:16:24;3.50;77.10
4306;DHT22;2166;49.926;8.608;2023-01-19T09:18:56;3.70;76.90
4306;DHT22;2166;49.926;8.608;2023-01-19T09:21:24;4.00;76.80
4306;DHT22;2166;49.926;8.608;2023-01-19T09:23:53;4.30;76.10
4306;DHT22;2166;49.926;8.608;2023-01-19T09:26:24;4.60;75.60
4306;DHT22;2166;49.926;8.608;2023-01-19T09:28:54;4.70;74.80
4306;DHT22;2166;49.926;8.608;2023-01-19T09:31:22;4.90;74.80
4306;DHT22;2166;49.926;8.608;2023-01-19T09:33:51;5.30;74.40
4306;DHT22;2166;49.926;8.608;2023-01-19T09:36:20;5.60;73.90
4306;DHT22;2166;49.926;8.608;2023-01-19T09:38:49;6.00;73.50
4306;DHT22;2166;49.926;8.608;2023-01-19T09:41:18;6.20;73.10
4306;DHT22;2166;49.926;8.608;2023-01-19T09:43:49;6.30;72.50
4306;DHT22;2166;49.926;8.608;2023-01-19T09:46:18;6.70;72.60
4306;DHT22;2166;49.926;8.608;2023-01-19T09:48:50;6.50;71.70
4306;DHT22;2166;49.926;8.608;2023-01-19T09:51:21;6.50;72.40
4306;DHT22;2166;49.926;8.608;2023-01-19T09:53:51;6.70;72.00
4306;DHT22;2166;49.926;8.608;2023-01-19T09:56:21;6.70;71.70
4306;DHT22;2166;49.926;8.608;2023-01-19T09:58:51;6.60;71.60
4306;DHT22;2166;49.926;8.608;2023-01-19T10:01:25;6.30;71.90
4306;DHT22;2166;49.926;8.608;2023-01-19T10:04:15;6.30;72.50
4306;DHT22;2166;49.926;8.608;2023-01-19T10:06:47;6.30;72.40
4306;DHT22;2166;49.926;8.608;2023-01-19T10:09:16;6.30;72.70
4306;DHT22;2166;49.926;8.608;2023-01-19T10:11:46;6.30;72.40
4306;DHT22;2166;49.926;8.608;2023-01-19T10:14:19;6.00;72.40
4306;DHT22;2166;49.926;8.608;2023-01-19T10:16:50;6.30;73.00
4306;DHT22;2166;49.926;8.608;2023-01-19T10:19:21;6.30;72.10
4306;DHT22;2166;49.926;8.608;2023-01-19T10:21:52;6.00;73.10
4306;DHT22;2166;49.926;8.608;2023-01-19T10:24:24;6.00;72.90
4306;DHT22;2166;49.926;8.608;2023-01-19T10:26:54;6.10;73.00
4306;DHT22;2166;49.926;8.608;2023-01-19T10:29:25;6.40;72.90
4306;DHT22;2166;49.926;8.608;2023-01-19T10:31:56;6.50;72.50
4306;DHT22;2166;49.926;8.608;2023-01-19T10:34:27;6.10;72.40
4306;DHT22;2166;49.926;8.608;2023-01-19T10:36:58;5.40;73.10
4306;DHT22;2166;49.926;8.608;2023-01-19T10:39:29;5.00;73.90
4306;DHT22;2166;49.926;8.608;2023-01-19T10:42:03;4.60;74.50
4306;DHT22;2166;49.926;8.608;2023-01-19T10:44:34;4.20;75.10
4306;DHT22;2166;49.926;8.608;2023-01-19T10:47:03;4.20;75.70
4306;DHT22;2166;49.926;8.608;2023-01-19T10:49:34;4.30;75.50
4306;DHT22;2166;49.926;8.608;2023-01-19T10:52:05;4.40;75.90
4306;DHT22;2166;49.926;8.608;2023-01-19T10:54:35;4.40;75.60
4306;DHT22;2166;49.926;8.608;2023-01-19T10:57:06;4.20;76.10
4306;DHT22;2166;49.926;8.608;2023-01-19T10:59:36;3.90;76.60
4306;DHT22;2166;49.926;8.608;2023-01-19T11:02:15;3.80;77.70
4306;DHT22;2166;49.926;8.608;2023-01-19T11:04:45;3.60;78.40
4306;DHT22;2166;49.926;8.608;2023-01-19T11:07:19;3.40;79.10
4306;DHT22;2166;49.926;8.608;2023-01-19T11:09:48;3.30;79.70
4306;DHT22;2166;49.926;8.608;2023-01-19T11:12:18;3.20;80.10
4306;DHT22;2166;49.926;8.608;2023-01-19T11:14:46;3.10;80.50
4306;DHT22;2166;49.926;8.608;2023-01-19T11:17:17;3.00;81.10
4306;DHT22;2166;49.926;8.608;2023-01-19T11:19:57;3.00;81.00
4306;DHT22;2166;49.926;8.608;2023-01-19T11:22:29;2.80;81.30
4306;DHT22;2166;49.926;8.608;2023-01-19T11:24:59;2.80;81.50
4306;DHT22;2166;49.926;8.608;2023-01-19T11:27:28;2.80;81.70
4306;DHT22;2166;49.926;8.608;2023-01-19T11:29:59;2.80;82.00
4306;DHT22;2166;49.926;8.608;2023-01-19T11:32:31;2.90;82.00
4306;DHT22;2166;49.926;8.608;2023-01-19T11:37:47;2.80;81.80
4306;DHT22;2166;49.926;8.608;2023-01-19T11:40:16;2.80;82.00
4306;DHT22;2166;49.926;8.608;2023-01-19T11:42:44;2.80;82.00
4306;DHT22;2166;49.926;8.608;2023-01-19T11:45:14;2.70;81.90
4306;DHT22;2166;49.926;8.608;2023-01-19T11:47:46;2.70;82.10
4306;DHT22;2166;49.926;8.608;2023-01-19T11:50:20;2.80;82.30
4306;DHT22;2166;49.926;8.608;2023-01-19T11:52:52;2.80;82.30
4306;DHT22;2166;49.926;8.608;2023-01-19T11:55:32;2.80;82.50
4306;DHT22;2166;49.926;8.608;2023-01-19T11:58:03;2.80;82.10
4306;DHT22;2166;49.926;8.608;2023-01-19T12:00:33;2.80;82.20
4306;DHT22;2166;49.926;8.608;2023-01-19T12:03:05;2.80;82.20
4306;DHT22;2166;49.926;8.608;2023-01-19T12:05:35;2.80;82.10
4306;DHT22;2166;49.926;8.608;2023-01-19T12:08:09;2.90;82.10
4306;DHT22;2166;49.926;8.608;2023-01-19T12:10:40;2.80;81.70
4306;DHT22;2166;49.926;8.608;2023-01-19T12:13:17;2.80;81.60
4306;DHT22;2166;49.926;8.608;2023-01-19T12:15:49;2.90;81.50
4306;DHT22;2166;49.926;8.608;2023-01-19T12:18:19;3.00;81.30
4306;DHT22;2166;49.926;8.608;2023-01-19T12:20:51;3.00;81.00
4306;DHT22;2166;49.926;8.608;2023-01-19T12:23:34;3.20;81.10
4306;DHT22;2166;49.926;8.608;2023-01-19T12:26:07;3.20;80.80
4306;DHT22;2166;49.926;8.608;2023-01-19T12:28:40;3.20;80.90
4306;DHT22;2166;49.926;8.608;2023-01-19T12:31:09;3.20;80.60
4306;DHT22;2166;49.926;8.608;2023-01-19T12:33:42;3.30;80.80
4306;DHT22;2166;49.926;8.608;2023-01-19T12:36:11;3.30;80.60
4306;DHT22;2166;49.926;8.608;2023-01-19T12:39:02;3.20;80.60
4306;DHT22;2166;49.926;8.608;2023-01-19T12:41:31;3.10;80.70
4306;DHT22;2166;49.926;8.608;2023-01-19T12:44:14;3.20;81.10
4306;DHT22;2166;49.926;8.608;2023-01-19T12:46:45;3.20;81.00
4306;DHT22;2166;49.926;8.608;2023-01-19T12:49:16;3.30;81.00
4306;DHT22;2166;49.926;8.608;2023-01-19T12:51:48;3.20;80.70
4306;DHT22;2166;49.926;8.608;2023-01-19T12:54:19;3.30;80.80
4306;DHT22;2166;49.926;8.608;2023-01-19T12:56:54;3.30;80.70
4306;DHT22;2166;49.926;8.608;2023-01-19T12:59:24;3.40;80.70
4306;DHT22;2166;49.926;8.608;2023-01-19T13:04:39;3.60;79.90
4306;DHT22;2166;49.926;8.608;2023-01-19T13:07:08;3.70;79.90
4306;DHT22;2166;49.926;8.608;2023-01-19T13:09:41;3.80;80.10
4306;DHT22;2166;49.926;8.608;2023-01-19T13:12:10;3.80;80.00
4306;DHT22;2166;49.926;8.608;2023-01-19T13:14:39;3.70;79.90
4306;DHT22;2166;49.926;8.608;2023-01-19T13:19:59;3.60;80.30
4306;DHT22;2166;49.926;8.608;2023-01-19T13:25:32;3.30;81.10
4306;DHT22;2166;49.926;8.608;2023-01-19T13:28:06;3.30;81.40
4306;DHT22;2166;49.926;8.608;2023-01-19T13:30:35;3.30;81.50
4306;DHT22;2166;49.926;8.608;2023-01-19T13:33:08;3.20;81.60
4306;DHT22;2166;49.926;8.608;2023-01-19T13:35:39;3.20;81.60
4306;DHT22;2166;49.926;8.608;2023-01-19T13:38:14;3.30;81.80
4306;DHT22;2166;49.926;8.608;2023-01-19T13:40:45;3.30;81.50
4306;DHT22;2166;49.926;8.608;2023-01-19T13:43:14;3.10;81.50
4306;DHT22;2166;49.926;8.608;2023-01-19T13:45:46;3.00;82.00
4306;DHT22;2166;49.926;8.608;2023-01-19T13:48:20;3.00;82.10
4306;DHT22;2166;49.926;8.608;2023-01-19T13:50:57;3.00;82.20
4306;DHT22;2166;49.926;8.608;2023-01-19T13:53:26;2.80;82.30
4306;DHT22;2166;49.926;8.608;2023-01-19T13:56:17;2.90;82.60
4306;DHT22;2166;49.926;8.608;2023-01-19T13:59:00;3.00;82.50
4306;DHT22;2166;49.926;8.608;2023-01-19T14:01:30;2.90;82.30
4306;DHT22;2166;49.926;8.608;2023-01-19T14:04:00;2.90;82.50
4306;DHT22;2166;49.926;8.608;2023-01-19T14:06:38;2.90;82.60
4306;DHT22;2166;49.926;8.608;2023-01-19T14:09:07;2.80;82.50
4306;DHT22;2166;49.926;8.608;2023-01-19T14:11:38;2.80;82.70
4306;DHT22;2166;49.926;8.608;2023-01-19T14:14:19;2.80;82.70
4306;DHT22;2166;49.926;8.608;2023-01-19T14:16:48;2.80;82.80
4306;DHT22;2166;49.926;8.608;2023-01-19T14:19:16;2.80;82.80
4306;DHT22;2166;49.926;8.608;2023-01-19T14:21:45;2.70;82.70
4306;DHT22;2166;49.926;8.608;2023-01-19T14:24:16;2.60;82.90
4306;DHT22;2166;49.926;8.608;2023-01-19T14:26:47;2.60;82.90
4306;DHT22;2166;49.926;8.608;2023-01-19T14:29:18;2.50;83.10
4306;DHT22;2166;49.926;8.608;2023-01-19T14:31:50;2.50;83.10
4306;DHT22;2166;49.926;8.608;2023-01-19T14:34:34;2.50;83.30
4306;DHT22;2166;49.926;8.608;2023-01-19T14:37:02;2.40;83.20
4306;DHT22;2166;49.926;8.608;2023-01-19T14:39:32;2.40;83.30
4306;DHT22;2166;49.926;8.608;2023-01-19T14:42:03;2.30;83.50
4306;DHT22;2166;49.926;8.608;2023-01-19T14:44:33;2.30;83.60
4306;DHT22;2166;49.926;8.608;2023-01-19T14:47:02;2.30;83.60
4306;DHT22;2166;49.926;8.608;2023-01-19T14:49:31;2.30;83.60
4306;DHT22;2166;49.926;8.608;2023-01-19T14:52:01;2.30;83.70
4306;DHT22;2166;49.926;8.608;2023-01-19T14:54:34;2.30;83.70
4306;DHT22;2166;49.926;8.608;2023-01-19T14:57:04;2.20;83.80
4306;DHT22;2166;49.926;8.608;2023-01-19T14:59:32;2.30;83.90
4306;DHT22;2166;49.926;8.608;2023-01-19T15:02:01;2.20;83.90
4306;DHT22;2166;49.926;8.608;2023-01-19T15:04:29;2.20;83.90
4306;DHT22;2166;49.926;8.608;2023-01-19T15:06:58;2.20;83.80
4306;DHT22;2166;49.926;8.608;2023-01-19T15:09:26;2.30;83.90
4306;DHT22;2166;49.926;8.608;2023-01-19T15:11:55;2.20;83.80
4306;DHT22;2166;49.926;8.608;2023-01-19T15:14:24;2.20;84.00
4306;DHT22;2166;49.926;8.608;2023-01-19T15:16:53;2.10;84.10
4306;DHT22;2166;49.926;8.608;2023-01-19T15:19:21;1.80;84.20
4306;DHT22;2166;49.926;8.608;2023-01-19T15:21:49;1.70;84.40
4306;DHT22;2166;49.926;8.608;2023-01-19T15:24:18;1.60;84.10
4306;DHT22;2166;49.926;8.608;2023-01-19T15:26:46;1.50;84.20
4306;DHT22;2166;49.926;8.608;2023-01-19T15:29:18;1.40;84.30
4306;DHT22;2166;49.926;8.608;2023-01-19T15:31:49;1.40;84.50
4306;DHT22;2166;49.926;8.608;2023-01-19T15:34:18;1.40;84.50
4306;DHT22;2166;49.926;8.608;2023-01-19T15:36:46;1.40;84.60
4306;DHT22;2166;49.926;8.608;2023-01-19T15:39:14;1.30;84.60
4306;DHT22;2166;49.926;8.608;2023-01-19T15:41:43;1.30;84.70
4306;DHT22;2166;49.926;8.608;2023-01-19T15:44:13;1.30;84.70
4306;DHT22;2166;49.926;8.608;2023-01-19T15:46:42;1.30;84.70
4306;DHT22;2166;49.926;8.608;2023-01-19T15:49:11;1.30;84.80
4306;DHT22;2166;49.926;8.608;2023-01-19T15:51:40;1.30;84.80
4306;DHT22;2166;49.926;8.608;2023-01-19T15:54:09;1.30;84.80
4306;DHT22;2166;49.926;8.608;2023-01-19T15:56:39;1.20;84.80
4306;DHT22;2166;49.926;8.608;2023-01-19T15:59:08;1.20;84.80
4306;DHT22;2166;49.926;8.608;2023-01-19T16:01:36;1.20;84.90
4306;DHT22;2166;49.926;8.608;2023-01-19T16:04:05;1.20;84.90
4306;DHT22;2166;49.926;8.608;2023-01-19T16:06:37;1.20;84.90
4306;DHT22;2166;49.926;8.608;2023-01-19T16:09:05;1.20;84.90
4306;DHT22;2166;49.926;8.608;2023-01-19T16:11:33;1.20;84.90
4306;DHT22;2166;49.926;8.608;2023-01-19T16:14:03;1.20;84.90
4306;DHT22;2166;49.926;8.608;2023-01-19T16:16:32;1.20;84.90
4306;DHT22;2166;49.926;8.608;2023-01-19T16:19:01;1.20;84.90
4306;DHT22;2166;49.926;8.608;2023-01-19T16:21:29;1.20;84.90
4306;DHT22;2166;49.926;8.608;2023-01-19T16:23:59;1.20;84.90
4306;DHT22;2166;49.926;8.608;2023-01-19T16:26:28;1.20;84.80
4306;DHT22;2166;49.926;8.608;2023-01-19T16:28:58;1.20;84.80
4306;DHT22;2166;49.926;8.608;2023-01-19T16:31:27;1.20;84.80
4306;DHT22;2166;49.926;8.608;2023-01-19T16:33:56;1.20;84.80
4306;DHT22;2166;49.926;8.608;2023-01-19T16:36:25;1.30;84.80
4306;DHT22;2166;49.926;8.608;2023-01-19T16:38:56;1.30;84.80
4306;DHT22;2166;49.926;8.608;2023-01-19T16:41:27;1.30;84.80
4306;DHT22;2166;49.926;8.608;2023-01-19T16:43:56;1.40;84.80
4306;DHT22;2166;49.926;8.608;2023-01-19T16:46:25;1.40;84.60
4306;DHT22;2166;49.926;8.608;2023-01-19T16:48:57;1.40;84.60
4306;DHT22;2166;49.926;8.608;2023-01-19T16:51:27;1.40;84.50
4306;DHT22;2166;49.926;8.608;2023-01-19T16:53:56;1.40;84.60
4306;DHT22;2166;49.926;8.608;2023-01-19T16:56:24;1.40;84.60
4306;DHT22;2166;49.926;8.608;2023-01-19T16:58:56;1.40;84.60